AirNav   Phillips 66 Aviation Fuel
 
 1131 users online  

3S2 Swans Field Airport
Dixfield, Maine, USA

GOING TO DIXFIELD?


FAA INFORMATION EFFECTIVE 04 JANUARY 2018

Location

FAA Identifier: 3S2
Lat/Long: 44-30-50.9000N / 070-24-24.5000W
44-30.848333N / 070-24.408333W
44.5141389 / -70.4068056
(estimated)
Elevation: 418.4 ft. / 128 m (estimated)
Variation: 18W (1985)
From city: 3 miles SE of DIXFIELD, ME
Time zone: UTC -5 (UTC -4 during Daylight Saving Time)
Zip code: 04224

Airport Operations

Airport use: Open to the public
Activation date: 05/1971
Control tower: no
ARTCC: BOSTON CENTER
FSS: BANGOR FLIGHT SERVICE STATION
NOTAMs facility: BGR (NOTAM-D service available)
Attendance: UNATNDD
Wind indicator: yes
Segmented circle: no

Airport Communications

CTAF: 122.9
WX AWOS-AV at 0B1 (18 nm W): 122.9 (207-512-2516)
  • CLNC DLVY THRU FLIGHT SERVICES 1-800-WX-BRIEF.

Nearby radio navigation aids

VOR radial/distance  VOR name  Freq  Var
AUGr312/28.6AUGUSTA VOR/DME111.4018W
BMLr119/34.1BERLIN VOR/DME110.4017W

 
NDB name  Hdg/Dist  Freq  Var  ID
RANGELEY168/29.222118WRQM .-. --.- --

Airport Services

Parking: hangars and tiedowns
Airframe service: NONE
Powerplant service: NONE

Runway Information

Runway 12/30

Dimensions: 1808 x 40 ft. / 551 x 12 m
Surface: turf, in good condition
RUNWAY 12  RUNWAY 30
Latitude: 44-30.924372N44-30.773688N
Longitude: 070-24.588318W070-24.229843W
Elevation: 417.9 ft.418.4 ft.
Traffic pattern: leftleft
Runway heading: 139 magnetic, 121 true319 magnetic, 301 true
Touchdown point: yes, no lightsyes, no lights
Obstructions: 55 ft. trees, 65 ft. right of centerline12 ft. trees

Airport Ownership and Management from official FAA records

Ownership: Privately-owned
Owner: ROYAL SWAN
1308 CANTON PT. ROAD
DIXFIELD, ME 04224
Phone (207) 491-5025
Manager: ROYAL SWAN
1308 CANTON PT. ROAD
DIXFIELD, ME 04224
Phone (207) 491-5025

Airport Operational Statistics

Aircraft based on the field: 6
Single engine airplanes: 6
    
Aircraft operations: avg 43/month *
98% local general aviation
2% transient general aviation
* for 12-month period ending 09 August 2016

Additional Remarks

CONTACT AMGR FOR RY CONDITIONS IN WINTER @ 207-491-5025
ACCESS ROADWAY 45 FT FM RY 12/30, CNTRLN ALONG NORTH SIDE.
PVT ROADWAY (+10 FEET) CROSSES RY 12/30 APRX 700 FT FM NW THLD.
WILDLIFE ON OR IN VICINITY OF AIRPORT
RWY 12 +40-50 TREES FM THRESHOLD TO 400' TO THE SE, 35'L OF CENTERLINE
RUNWAY 30, +4" BERM 0' FM END OF RWY ACROSS RWY BENEATH TREES.

Instrument Procedures

There are no published instrument procedures at 3S2.

Some nearby airports with instrument procedures:

81B - Oxford County Regional Airport (22 nm S)
KOWK - Central Maine Airport of Norridgewock (26 nm NE)
KLEW - Auburn/Lewiston Municipal Airport (28 nm S)
M57 - Rangeley Lake Seaplane Base (29 nm N)
KAUG - Augusta State Airport (29 nm SE)
 
Loc | Ops | Rwys | IFR | FBO | Links
Com | Nav | Svcs | Stats | Notes

Auburn-Lewiston Municipal Airport
 
Area around 3S2 (Swans Field Airport)
 
Road maps at: MapQuest Bing Google
 
Aerial photo
WARNING: Photo may not be current or correct
Aerial photo of 3S2 (Swans Field Airport)
Do you have a better or more recent aerial photo of Swans Field Airport that you would like to share? If so, please send us your photo.

 
Sectional chart

 
Airport distance calculator
Flying to Swans Field Airport? Find the distance to fly.

From to 3S2

Sunrise and sunset
Times for 23-Jan-2018
 Local
(UTC-5)
 Zulu
(UTC)
Morning civil twilight06:3911:39
Sunrise07:1012:10
Sunset16:3721:37
Evening civil twilight17:0922:09

Current date and time
Zulu (UTC)  23-Jan-2018 23:25:27
Local (UTC-5)  23-Jan-2018 18:25:27
 
METAR
KAUG 
29nm SE 
232253Z AUTO 00000KT 2 1/2SM UP BR OVC012 00/M01 A2948 RMK AO2 UPB22FZRAE22 SLP987 P0003 I1000 T00001006
KLEW 
29nm S 
232256Z AUTO 32004KT 8SM UP OVC004 00/00 A2947 RMK AO2 SLP995 P0006 T00000000 FZRANO
K8B0 
30nm NW 
232255Z AUTO 00000KT 1 3/4SM BR OVC008 00/00 A2943 RMK AO2
KWVL 
32nm E 
232256Z AUTO 00000KT 2SM UP BR FEW003 OVC014 00/M01 A2943 RMK AO2 VIS 1 1/2V3 UPB2158SNE2158 SLP998 P0005 T00001006 FZRANO
KBML 
33nm W 
232252Z AUTO 00000KT 5SM BR OVC005 02/01 A2944 RMK AO2 SLP981 T00170011
KIZG 
39nm SW 
232254Z AUTO 00000KT 6SM BR OVC009 00/00 A2947 RMK AO2 SLP986 T00000000
KMWN 
40nm W 
232252Z 27027KT 1/16SM FZFG VV002 M01/M01 RMK VRY LGT GICG MOON DMLY VSBL
KCWN 
44nm SW 
232258Z AUTO 14007KT 10SM CLR 00/M15 A3014 RMK AO2 SLP149 T00031151 $
KIWI 
44nm SE 
232253Z AUTO 00000KT 3SM -RA BR OVC002 01/01 A2949 RMK AO2 RAB2156 SLP987 P0004 T00060006
KHIE 
50nm W 
232252Z AUTO 00000KT 1/2SM FG VV004 02/01 A2946 RMK AO2 SLP987 T00170011
TAF
KAUG 
29nm SE 
232205Z 2322/2418 14005KT 3SM -FZRA BR OVC006 FM240300 24007KT P6SM BKN120 OVC250
NOTAMs
Click for the latest NOTAMs
NOTAMs are issued by the DoD/FAA and will open in a separate window not controlled by AirNav.

 

 
 

Would you like to see your business listed on this page?

 If your business provides an interesting product or service to pilots, flight crews, aircraft, or users of the Swans Field Airport, you should consider listing it here.  To start the listing process, click on the button below
 
Add a business
 

Other Pages about Swans Field Airport

Update a link
 
Copyright © AirNav, LLC. All rights reserved. Privacy Policy  Contact